sensor_id;sensor_type;location;lat;lon;timestamp;P1;durP1;ratioP1;P2;durP2;ratioP2
67554;SDS011;54385;53.516;49.456;2023-05-10T00:00:39;2.22;;;1.70;;
67554;SDS011;54385;53.516;49.456;2023-05-10T00:03:05;5.85;;;1.90;;
67554;SDS011;54385;53.516;49.456;2023-05-10T00:05:32;2.67;;;1.75;;
67554;SDS011;54385;53.516;49.456;2023-05-10T00:10:25;5.07;;;1.88;;
67554;SDS011;54385;53.516;49.456;2023-05-10T00:15:20;5.47;;;1.88;;
67554;SDS011;54385;53.516;49.456;2023-05-10T00:17:46;4.32;;;1.73;;
67554;SDS011;54385;53.516;49.456;2023-05-10T00:20:13;5.78;;;2.03;;
67554;SDS011;54385;53.516;49.456;2023-05-10T00:25:08;6.28;;;2.22;;
67554;SDS011;54385;53.516;49.456;2023-05-10T00:27:36;4.07;;;2.35;;
67554;SDS011;54385;53.516;49.456;2023-05-10T00:30:02;7.57;;;2.08;;
67554;SDS011;54385;53.516;49.456;2023-05-10T00:32:29;4.90;;;1.75;;
67554;SDS011;54385;53.516;49.456;2023-05-10T00:34:56;5.32;;;1.85;;
67554;SDS011;54385;53.516;49.456;2023-05-10T00:37:22;5.43;;;2.10;;
67554;SDS011;54385;53.516;49.456;2023-05-10T00:39:48;3.50;;;2.03;;
67554;SDS011;54385;53.516;49.456;2023-05-10T00:42:15;9.85;;;2.10;;
67554;SDS011;54385;53.516;49.456;2023-05-10T00:47:08;4.22;;;1.65;;
67554;SDS011;54385;53.516;49.456;2023-05-10T00:49:35;4.88;;;1.75;;
67554;SDS011;54385;53.516;49.456;2023-05-10T00:52:02;8.68;;;2.10;;
67554;SDS011;54385;53.516;49.456;2023-05-10T00:54:29;5.45;;;2.05;;
67554;SDS011;54385;53.516;49.456;2023-05-10T00:56:56;5.65;;;1.70;;
67554;SDS011;54385;53.516;49.456;2023-05-10T00:59:22;8.10;;;2.28;;
67554;SDS011;54385;53.516;49.456;2023-05-10T01:01:49;5.28;;;1.85;;
67554;SDS011;54385;53.516;49.456;2023-05-10T01:04:17;7.28;;;2.10;;
67554;SDS011;54385;53.516;49.456;2023-05-10T01:06:45;5.50;;;2.33;;
67554;SDS011;54385;53.516;49.456;2023-05-10T01:11:38;7.38;;;1.92;;
67554;SDS011;54385;53.516;49.456;2023-05-10T01:14:05;2.42;;;1.25;;
67554;SDS011;54385;53.516;49.456;2023-05-10T01:16:33;3.92;;;1.75;;
67554;SDS011;54385;53.516;49.456;2023-05-10T01:19:37;3.20;;;1.42;;
67554;SDS011;54385;53.516;49.456;2023-05-10T01:22:03;2.15;;;1.50;;
67554;SDS011;54385;53.516;49.456;2023-05-10T01:24:56;3.67;;;1.50;;
67554;SDS011;54385;53.516;49.456;2023-05-10T01:28:02;3.40;;;1.23;;
67554;SDS011;54385;53.516;49.456;2023-05-10T01:31:03;3.42;;;1.38;;
67554;SDS011;54385;53.516;49.456;2023-05-10T01:33:43;1.92;;;0.80;;
67554;SDS011;54385;53.516;49.456;2023-05-10T01:36:32;1.73;;;1.13;;
67554;SDS011;54385;53.516;49.456;2023-05-10T01:39:14;1.77;;;1.20;;
67554;SDS011;54385;53.516;49.456;2023-05-10T01:47:22;2.65;;;1.70;;
67554;SDS011;54385;53.516;49.456;2023-05-10T01:49:56;3.58;;;2.10;;
67554;SDS011;54385;53.516;49.456;2023-05-10T01:52:33;2.42;;;2.00;;
67554;SDS011;54385;53.516;49.456;2023-05-10T01:55:14;2.90;;;2.38;;
67554;SDS011;54385;53.516;49.456;2023-05-10T01:57:44;3.50;;;2.33;;
67554;SDS011;54385;53.516;49.456;2023-05-10T02:00:14;8.68;;;3.47;;
67554;SDS011;54385;53.516;49.456;2023-05-10T02:02:44;8.63;;;5.88;;
67554;SDS011;54385;53.516;49.456;2023-05-10T02:05:12;7.55;;;6.50;;
67554;SDS011;54385;53.516;49.456;2023-05-10T02:07:41;7.20;;;6.55;;
67554;SDS011;54385;53.516;49.456;2023-05-10T02:10:10;8.20;;;7.40;;
67554;SDS011;54385;53.516;49.456;2023-05-10T02:12:41;10.63;;;6.97;;
67554;SDS011;54385;53.516;49.456;2023-05-10T02:15:09;10.75;;;7.78;;
67554;SDS011;54385;53.516;49.456;2023-05-10T02:17:38;10.93;;;6.88;;
67554;SDS011;54385;53.516;49.456;2023-05-10T02:20:06;7.35;;;6.32;;
67554;SDS011;54385;53.516;49.456;2023-05-10T02:22:34;12.88;;;5.30;;
67554;SDS011;54385;53.516;49.456;2023-05-10T02:25:01;6.10;;;5.50;;
67554;SDS011;54385;53.516;49.456;2023-05-10T02:27:30;6.60;;;5.05;;
67554;SDS011;54385;53.516;49.456;2023-05-10T02:29:57;4.50;;;4.07;;
67554;SDS011;54385;53.516;49.456;2023-05-10T02:32:26;6.03;;;5.10;;
67554;SDS011;54385;53.516;49.456;2023-05-10T02:34:54;5.95;;;4.93;;
67554;SDS011;54385;53.516;49.456;2023-05-10T02:37:21;10.52;;;6.63;;
67554;SDS011;54385;53.516;49.456;2023-05-10T02:39:50;16.17;;;10.88;;
67554;SDS011;54385;53.516;49.456;2023-05-10T02:42:18;14.07;;;10.10;;
67554;SDS011;54385;53.516;49.456;2023-05-10T02:44:48;14.68;;;10.20;;
67554;SDS011;54385;53.516;49.456;2023-05-10T02:47:18;15.77;;;9.63;;
67554;SDS011;54385;53.516;49.456;2023-05-10T02:49:45;11.40;;;8.57;;
67554;SDS011;54385;53.516;49.456;2023-05-10T02:52:14;12.68;;;8.60;;
67554;SDS011;54385;53.516;49.456;2023-05-10T02:54:45;8.23;;;6.85;;
67554;SDS011;54385;53.516;49.456;2023-05-10T02:57:17;14.45;;;8.00;;
67554;SDS011;54385;53.516;49.456;2023-05-10T02:59:54;10.95;;;5.93;;
67554;SDS011;54385;53.516;49.456;2023-05-10T03:02:21;11.00;;;3.60;;
67554;SDS011;54385;53.516;49.456;2023-05-10T03:04:48;5.22;;;2.80;;
67554;SDS011;54385;53.516;49.456;2023-05-10T03:07:14;5.13;;;2.15;;
67554;SDS011;54385;53.516;49.456;2023-05-10T03:09:42;3.67;;;1.80;;
67554;SDS011;54385;53.516;49.456;2023-05-10T03:12:18;1.92;;;1.17;;
67554;SDS011;54385;53.516;49.456;2023-05-10T03:15:12;4.30;;;1.13;;
67554;SDS011;54385;53.516;49.456;2023-05-10T03:20:22;3.80;;;1.05;;
67554;SDS011;54385;53.516;49.456;2023-05-10T03:22:55;4.60;;;1.40;;
67554;SDS011;54385;53.516;49.456;2023-05-10T03:25:31;4.38;;;1.38;;
67554;SDS011;54385;53.516;49.456;2023-05-10T03:27:59;6.95;;;2.10;;
67554;SDS011;54385;53.516;49.456;2023-05-10T03:30:28;2.75;;;1.92;;
67554;SDS011;54385;53.516;49.456;2023-05-10T03:32:56;4.07;;;1.52;;
67554;SDS011;54385;53.516;49.456;2023-05-10T03:35:23;2.38;;;1.38;;
67554;SDS011;54385;53.516;49.456;2023-05-10T03:37:50;6.38;;;1.55;;
67554;SDS011;54385;53.516;49.456;2023-05-10T03:40:17;4.72;;;1.13;;
67554;SDS011;54385;53.516;49.456;2023-05-10T03:42:44;6.90;;;1.50;;
67554;SDS011;54385;53.516;49.456;2023-05-10T03:45:11;20.10;;;1.63;;
67554;SDS011;54385;53.516;49.456;2023-05-10T03:47:37;5.20;;;1.58;;
67554;SDS011;54385;53.516;49.456;2023-05-10T03:50:05;6.70;;;1.90;;
67554;SDS011;54385;53.516;49.456;2023-05-10T03:52:32;10.43;;;2.17;;
67554;SDS011;54385;53.516;49.456;2023-05-10T03:54:59;2.47;;;1.48;;
67554;SDS011;54385;53.516;49.456;2023-05-10T03:57:30;5.93;;;1.17;;
67554;SDS011;54385;53.516;49.456;2023-05-10T03:59:58;5.30;;;1.20;;
67554;SDS011;54385;53.516;49.456;2023-05-10T04:02:28;1.35;;;1.00;;
67554;SDS011;54385;53.516;49.456;2023-05-10T04:04:56;2.10;;;1.20;;
67554;SDS011;54385;53.516;49.456;2023-05-10T04:07:23;2.67;;;0.98;;
67554;SDS011;54385;53.516;49.456;2023-05-10T04:09:50;2.60;;;1.40;;
67554;SDS011;54385;53.516;49.456;2023-05-10T04:12:19;4.30;;;1.67;;
67554;SDS011;54385;53.516;49.456;2023-05-10T04:14:46;6.85;;;2.40;;
67554;SDS011;54385;53.516;49.456;2023-05-10T04:17:13;9.05;;;1.88;;
67554;SDS011;54385;53.516;49.456;2023-05-10T04:19:40;11.85;;;2.05;;
67554;SDS011;54385;53.516;49.456;2023-05-10T04:22:09;9.45;;;2.40;;
67554;SDS011;54385;53.516;49.456;2023-05-10T04:24:39;8.18;;;2.10;;
67554;SDS011;54385;53.516;49.456;2023-05-10T04:27:11;4.75;;;2.00;;
67554;SDS011;54385;53.516;49.456;2023-05-10T04:30:19;7.80;;;2.03;;
67554;SDS011;54385;53.516;49.456;2023-05-10T04:32:53;3.70;;;2.08;;
67554;SDS011;54385;53.516;49.456;2023-05-10T04:35:36;8.80;;;1.63;;
67554;SDS011;54385;53.516;49.456;2023-05-10T04:38:10;7.43;;;1.75;;
67554;SDS011;54385;53.516;49.456;2023-05-10T04:40:47;3.08;;;1.45;;
67554;SDS011;54385;53.516;49.456;2023-05-10T04:43:21;4.07;;;1.67;;
67554;SDS011;54385;53.516;49.456;2023-05-10T04:45:58;6.75;;;1.73;;
67554;SDS011;54385;53.516;49.456;2023-05-10T04:48:30;6.55;;;1.65;;
67554;SDS011;54385;53.516;49.456;2023-05-10T04:50:59;9.82;;;1.90;;
67554;SDS011;54385;53.516;49.456;2023-05-10T04:53:44;6.72;;;1.80;;
67554;SDS011;54385;53.516;49.456;2023-05-10T04:56:16;5.90;;;1.40;;
67554;SDS011;54385;53.516;49.456;2023-05-10T04:58:43;5.85;;;2.60;;
67554;SDS011;54385;53.516;49.456;2023-05-10T05:01:10;7.47;;;1.58;;
67554;SDS011;54385;53.516;49.456;2023-05-10T05:03:39;31.42;;;10.57;;
67554;SDS011;54385;53.516;49.456;2023-05-10T05:06:12;12.10;;;2.75;;
67554;SDS011;54385;53.516;49.456;2023-05-10T05:08:39;2.95;;;1.30;;
67554;SDS011;54385;53.516;49.456;2023-05-10T05:11:05;6.50;;;1.67;;
67554;SDS011;54385;53.516;49.456;2023-05-10T05:13:32;4.15;;;1.80;;
67554;SDS011;54385;53.516;49.456;2023-05-10T05:15:59;10.05;;;2.17;;
67554;SDS011;54385;53.516;49.456;2023-05-10T05:18:28;9.70;;;1.83;;
67554;SDS011;54385;53.516;49.456;2023-05-10T05:20:57;5.65;;;1.60;;
67554;SDS011;54385;53.516;49.456;2023-05-10T05:23:25;4.40;;;1.40;;
67554;SDS011;54385;53.516;49.456;2023-05-10T05:25:53;6.10;;;2.28;;
67554;SDS011;54385;53.516;49.456;2023-05-10T05:28:21;6.55;;;1.75;;
67554;SDS011;54385;53.516;49.456;2023-05-10T05:30:47;3.50;;;1.23;;
67554;SDS011;54385;53.516;49.456;2023-05-10T05:33:14;4.53;;;1.20;;
67554;SDS011;54385;53.516;49.456;2023-05-10T05:35:41;7.13;;;1.40;;
67554;SDS011;54385;53.516;49.456;2023-05-10T05:38:13;3.08;;;1.08;;
67554;SDS011;54385;53.516;49.456;2023-05-10T05:40:40;9.05;;;1.50;;
67554;SDS011;54385;53.516;49.456;2023-05-10T05:43:07;2.17;;;0.82;;
67554;SDS011;54385;53.516;49.456;2023-05-10T05:45:34;3.40;;;0.98;;
67554;SDS011;54385;53.516;49.456;2023-05-10T05:48:01;2.72;;;1.00;;
67554;SDS011;54385;53.516;49.456;2023-05-10T05:50:27;2.53;;;0.90;;
67554;SDS011;54385;53.516;49.456;2023-05-10T05:52:54;2.42;;;0.90;;
67554;SDS011;54385;53.516;49.456;2023-05-10T05:55:22;8.23;;;1.27;;
67554;SDS011;54385;53.516;49.456;2023-05-10T05:57:50;2.10;;;1.40;;
67554;SDS011;54385;53.516;49.456;2023-05-10T06:00:20;6.97;;;1.73;;
67554;SDS011;54385;53.516;49.456;2023-05-10T06:02:50;7.43;;;1.38;;
67554;SDS011;54385;53.516;49.456;2023-05-10T06:05:17;2.78;;;1.38;;
67554;SDS011;54385;53.516;49.456;2023-05-10T06:07:44;2.20;;;1.58;;
67554;SDS011;54385;53.516;49.456;2023-05-10T06:10:14;2.65;;;1.38;;
67554;SDS011;54385;53.516;49.456;2023-05-10T06:12:41;2.92;;;1.40;;
67554;SDS011;54385;53.516;49.456;2023-05-10T06:15:08;2.45;;;1.05;;
67554;SDS011;54385;53.516;49.456;2023-05-10T06:17:36;4.93;;;1.00;;
67554;SDS011;54385;53.516;49.456;2023-05-10T06:20:05;2.13;;;1.08;;
67554;SDS011;54385;53.516;49.456;2023-05-10T06:22:32;2.08;;;1.30;;
67554;SDS011;54385;53.516;49.456;2023-05-10T06:24:58;3.45;;;1.60;;
67554;SDS011;54385;53.516;49.456;2023-05-10T06:27:24;4.20;;;1.52;;
67554;SDS011;54385;53.516;49.456;2023-05-10T06:29:51;3.25;;;1.30;;
67554;SDS011;54385;53.516;49.456;2023-05-10T06:32:17;3.22;;;1.48;;
67554;SDS011;54385;53.516;49.456;2023-05-10T06:34:44;3.28;;;1.45;;
67554;SDS011;54385;53.516;49.456;2023-05-10T06:37:11;2.83;;;1.60;;
67554;SDS011;54385;53.516;49.456;2023-05-10T06:39:38;4.72;;;1.92;;
67554;SDS011;54385;53.516;49.456;2023-05-10T06:42:04;2.83;;;0.98;;
67554;SDS011;54385;53.516;49.456;2023-05-10T06:44:33;5.72;;;1.15;;
67554;SDS011;54385;53.516;49.456;2023-05-10T06:47:00;4.10;;;0.93;;
67554;SDS011;54385;53.516;49.456;2023-05-10T06:49:26;1.30;;;0.93;;
67554;SDS011;54385;53.516;49.456;2023-05-10T06:51:53;0.98;;;0.82;;
67554;SDS011;54385;53.516;49.456;2023-05-10T06:54:19;8.90;;;1.10;;
67554;SDS011;54385;53.516;49.456;2023-05-10T06:56:46;6.13;;;0.95;;
67554;SDS011;54385;53.516;49.456;2023-05-10T06:59:12;4.28;;;1.10;;
67554;SDS011;54385;53.516;49.456;2023-05-10T07:01:42;3.10;;;1.20;;
67554;SDS011;54385;53.516;49.456;2023-05-10T07:04:08;3.70;;;1.02;;
67554;SDS011;54385;53.516;49.456;2023-05-10T07:06:35;14.60;;;1.30;;
67554;SDS011;54385;53.516;49.456;2023-05-10T07:09:02;1.08;;;0.80;;
67554;SDS011;54385;53.516;49.456;2023-05-10T07:11:29;5.28;;;1.27;;
67554;SDS011;54385;53.516;49.456;2023-05-10T07:13:55;2.22;;;1.40;;
67554;SDS011;54385;53.516;49.456;2023-05-10T07:16:22;4.60;;;1.10;;
67554;SDS011;54385;53.516;49.456;2023-05-10T07:18:49;5.43;;;1.38;;
67554;SDS011;54385;53.516;49.456;2023-05-10T07:21:16;3.65;;;1.23;;
67554;SDS011;54385;53.516;49.456;2023-05-10T07:23:43;1.90;;;0.82;;
67554;SDS011;54385;53.516;49.456;2023-05-10T07:26:09;2.50;;;0.80;;
67554;SDS011;54385;53.516;49.456;2023-05-10T07:28:41;9.68;;;1.30;;
67554;SDS011;54385;53.516;49.456;2023-05-10T07:31:07;1.27;;;0.82;;
67554;SDS011;54385;53.516;49.456;2023-05-10T07:33:34;4.22;;;1.20;;
67554;SDS011;54385;53.516;49.456;2023-05-10T07:36:09;2.28;;;1.02;;
67554;SDS011;54385;53.516;49.456;2023-05-10T07:38:39;2.53;;;1.30;;
67554;SDS011;54385;53.516;49.456;2023-05-10T07:41:07;4.50;;;1.05;;
67554;SDS011;54385;53.516;49.456;2023-05-10T07:43:34;3.95;;;1.15;;
67554;SDS011;54385;53.516;49.456;2023-05-10T07:46:00;1.38;;;0.98;;
67554;SDS011;54385;53.516;49.456;2023-05-10T07:48:27;4.03;;;1.30;;
67554;SDS011;54385;53.516;49.456;2023-05-10T07:50:53;5.28;;;1.50;;
67554;SDS011;54385;53.516;49.456;2023-05-10T07:53:19;4.88;;;1.10;;
67554;SDS011;54385;53.516;49.456;2023-05-10T07:55:53;8.25;;;1.40;;
67554;SDS011;54385;53.516;49.456;2023-05-10T07:58:24;2.22;;;0.80;;
67554;SDS011;54385;53.516;49.456;2023-05-10T08:00:50;4.75;;;0.98;;
67554;SDS011;54385;53.516;49.456;2023-05-10T08:03:17;1.83;;;1.27;;
67554;SDS011;54385;53.516;49.456;2023-05-10T08:05:43;3.70;;;1.75;;
67554;SDS011;54385;53.516;49.456;2023-05-10T08:08:10;2.20;;;1.00;;
67554;SDS011;54385;53.516;49.456;2023-05-10T08:10:36;3.85;;;1.92;;
67554;SDS011;54385;53.516;49.456;2023-05-10T08:13:03;12.13;;;6.75;;
67554;SDS011;54385;53.516;49.456;2023-05-10T08:15:29;3.40;;;1.60;;
67554;SDS011;54385;53.516;49.456;2023-05-10T08:17:56;1.30;;;1.00;;
67554;SDS011;54385;53.516;49.456;2023-05-10T08:20:23;2.90;;;1.70;;
67554;SDS011;54385;53.516;49.456;2023-05-10T08:22:49;4.55;;;2.05;;
67554;SDS011;54385;53.516;49.456;2023-05-10T08:25:15;5.35;;;2.95;;
67554;SDS011;54385;53.516;49.456;2023-05-10T08:27:42;4.40;;;1.67;;
67554;SDS011;54385;53.516;49.456;2023-05-10T08:30:08;4.13;;;1.90;;
67554;SDS011;54385;53.516;49.456;2023-05-10T08:32:35;4.13;;;1.55;;
67554;SDS011;54385;53.516;49.456;2023-05-10T08:35:03;5.00;;;2.13;;
67554;SDS011;54385;53.516;49.456;2023-05-10T08:37:30;4.15;;;1.70;;
67554;SDS011;54385;53.516;49.456;2023-05-10T08:39:57;4.43;;;1.80;;
67554;SDS011;54385;53.516;49.456;2023-05-10T08:42:24;3.78;;;1.45;;
67554;SDS011;54385;53.516;49.456;2023-05-10T08:44:54;4.78;;;2.65;;
67554;SDS011;54385;53.516;49.456;2023-05-10T08:47:22;8.52;;;5.07;;
67554;SDS011;54385;53.516;49.456;2023-05-10T08:49:49;2.97;;;1.80;;
67554;SDS011;54385;53.516;49.456;2023-05-10T08:52:17;7.63;;;4.57;;
67554;SDS011;54385;53.516;49.456;2023-05-10T08:54:44;4.00;;;2.15;;
67554;SDS011;54385;53.516;49.456;2023-05-10T08:57:10;5.68;;;2.70;;
67554;SDS011;54385;53.516;49.456;2023-05-10T08:59:37;7.18;;;3.47;;
67554;SDS011;54385;53.516;49.456;2023-05-10T09:02:05;4.50;;;2.22;;
67554;SDS011;54385;53.516;49.456;2023-05-10T09:04:32;8.30;;;4.25;;
67554;SDS011;54385;53.516;49.456;2023-05-10T09:06:59;4.68;;;2.72;;
67554;SDS011;54385;53.516;49.456;2023-05-10T09:09:25;6.57;;;3.67;;
67554;SDS011;54385;53.516;49.456;2023-05-10T09:11:53;9.82;;;3.83;;
67554;SDS011;54385;53.516;49.456;2023-05-10T09:14:20;6.47;;;2.67;;
67554;SDS011;54385;53.516;49.456;2023-05-10T09:16:51;4.38;;;3.00;;
67554;SDS011;54385;53.516;49.456;2023-05-10T09:19:20;4.65;;;2.20;;
67554;SDS011;54385;53.516;49.456;2023-05-10T09:21:47;3.85;;;2.65;;
67554;SDS011;54385;53.516;49.456;2023-05-10T09:24:15;6.70;;;2.50;;
67554;SDS011;54385;53.516;49.456;2023-05-10T09:26:47;8.63;;;4.05;;
67554;SDS011;54385;53.516;49.456;2023-05-10T09:29:14;7.80;;;4.82;;
67554;SDS011;54385;53.516;49.456;2023-05-10T09:31:45;7.18;;;3.45;;
67554;SDS011;54385;53.516;49.456;2023-05-10T09:34:22;7.05;;;4.13;;
67554;SDS011;54385;53.516;49.456;2023-05-10T09:36:56;5.70;;;3.88;;
67554;SDS011;54385;53.516;49.456;2023-05-10T09:39:30;7.22;;;3.92;;
67554;SDS011;54385;53.516;49.456;2023-05-10T09:42:04;4.10;;;3.05;;
67554;SDS011;54385;53.516;49.456;2023-05-10T09:44:32;6.82;;;4.03;;
67554;SDS011;54385;53.516;49.456;2023-05-10T09:47:02;15.02;;;4.47;;
67554;SDS011;54385;53.516;49.456;2023-05-10T09:49:31;9.45;;;4.47;;
67554;SDS011;54385;53.516;49.456;2023-05-10T09:52:02;7.10;;;4.15;;
67554;SDS011;54385;53.516;49.456;2023-05-10T09:54:33;6.35;;;3.70;;
67554;SDS011;54385;53.516;49.456;2023-05-10T09:57:00;5.22;;;3.50;;
67554;SDS011;54385;53.516;49.456;2023-05-10T09:59:27;6.50;;;4.07;;
67554;SDS011;54385;53.516;49.456;2023-05-10T10:01:58;5.82;;;4.10;;
67554;SDS011;54385;53.516;49.456;2023-05-10T10:04:26;5.10;;;3.85;;
67554;SDS011;54385;53.516;49.456;2023-05-10T10:07:00;7.32;;;3.85;;
67554;SDS011;54385;53.516;49.456;2023-05-10T10:09:28;8.23;;;4.43;;
67554;SDS011;54385;53.516;49.456;2023-05-10T10:11:55;11.13;;;5.13;;
67554;SDS011;54385;53.516;49.456;2023-05-10T10:14:23;8.25;;;3.92;;
67554;SDS011;54385;53.516;49.456;2023-05-10T10:16:50;7.75;;;4.70;;
67554;SDS011;54385;53.516;49.456;2023-05-10T10:19:18;5.90;;;4.10;;
67554;SDS011;54385;53.516;49.456;2023-05-10T10:21:49;8.15;;;3.90;;
67554;SDS011;54385;53.516;49.456;2023-05-10T10:24:16;6.38;;;3.78;;
67554;SDS011;54385;53.516;49.456;2023-05-10T10:26:42;11.30;;;5.10;;
67554;SDS011;54385;53.516;49.456;2023-05-10T10:29:36;13.00;;;5.57;;
67554;SDS011;54385;53.516;49.456;2023-05-10T10:32:17;10.70;;;4.13;;
67554;SDS011;54385;53.516;49.456;2023-05-10T10:34:46;10.80;;;4.32;;
67554;SDS011;54385;53.516;49.456;2023-05-10T10:37:13;10.20;;;4.75;;
67554;SDS011;54385;53.516;49.456;2023-05-10T10:39:40;13.13;;;6.20;;
67554;SDS011;54385;53.516;49.456;2023-05-10T10:42:06;9.48;;;5.97;;
67554;SDS011;54385;53.516;49.456;2023-05-10T10:44:34;10.38;;;4.93;;
67554;SDS011;54385;53.516;49.456;2023-05-10T10:49:49;11.00;;;5.50;;
67554;SDS011;54385;53.516;49.456;2023-05-10T10:55:10;9.38;;;4.65;;
67554;SDS011;54385;53.516;49.456;2023-05-10T11:00:31;6.57;;;4.70;;
67554;SDS011;54385;53.516;49.456;2023-05-10T11:03:08;17.13;;;4.90;;
67554;SDS011;54385;53.516;49.456;2023-05-10T11:05:39;16.70;;;5.07;;
67554;SDS011;54385;53.516;49.456;2023-05-10T11:10:38;7.88;;;4.03;;
67554;SDS011;54385;53.516;49.456;2023-05-10T11:13:06;24.05;;;14.30;;
67554;SDS011;54385;53.516;49.456;2023-05-10T11:15:37;6.50;;;4.22;;
67554;SDS011;54385;53.516;49.456;2023-05-10T11:20:58;5.97;;;4.45;;
67554;SDS011;54385;53.516;49.456;2023-05-10T11:23:30;10.95;;;4.97;;
67554;SDS011;54385;53.516;49.456;2023-05-10T11:26:07;8.82;;;5.35;;
67554;SDS011;54385;53.516;49.456;2023-05-10T11:28:43;20.27;;;10.48;;
67554;SDS011;54385;53.516;49.456;2023-05-10T11:31:14;7.28;;;4.60;;
67554;SDS011;54385;53.516;49.456;2023-05-10T11:33:48;11.38;;;5.13;;
67554;SDS011;54385;53.516;49.456;2023-05-10T11:36:19;7.03;;;4.80;;
67554;SDS011;54385;53.516;49.456;2023-05-10T11:38:47;14.90;;;4.95;;
67554;SDS011;54385;53.516;49.456;2023-05-10T11:41:14;6.53;;;4.78;;
67554;SDS011;54385;53.516;49.456;2023-05-10T11:43:42;8.50;;;4.47;;
67554;SDS011;54385;53.516;49.456;2023-05-10T11:46:12;11.15;;;4.88;;
67554;SDS011;54385;53.516;49.456;2023-05-10T11:48:39;18.25;;;6.07;;
67554;SDS011;54385;53.516;49.456;2023-05-10T11:51:07;12.27;;;6.05;;
67554;SDS011;54385;53.516;49.456;2023-05-10T11:53:34;9.40;;;4.78;;
67554;SDS011;54385;53.516;49.456;2023-05-10T11:58:34;9.00;;;4.32;;
67554;SDS011;54385;53.516;49.456;2023-05-10T12:01:02;10.25;;;4.53;;
67554;SDS011;54385;53.516;49.456;2023-05-10T12:03:29;9.80;;;4.85;;
67554;SDS011;54385;53.516;49.456;2023-05-10T12:05:57;7.07;;;4.47;;
67554;SDS011;54385;53.516;49.456;2023-05-10T12:08:25;13.02;;;5.18;;
67554;SDS011;54385;53.516;49.456;2023-05-10T12:10:53;8.60;;;4.53;;
67554;SDS011;54385;53.516;49.456;2023-05-10T12:13:29;11.77;;;5.53;;
67554;SDS011;54385;53.516;49.456;2023-05-10T12:15:58;8.60;;;4.93;;
67554;SDS011;54385;53.516;49.456;2023-05-10T12:18:26;9.48;;;5.15;;
67554;SDS011;54385;53.516;49.456;2023-05-10T12:20:53;8.32;;;4.93;;
67554;SDS011;54385;53.516;49.456;2023-05-10T12:23:20;10.73;;;4.53;;
67554;SDS011;54385;53.516;49.456;2023-05-10T12:25:46;13.98;;;5.57;;
67554;SDS011;54385;53.516;49.456;2023-05-10T12:28:13;15.13;;;5.75;;
67554;SDS011;54385;53.516;49.456;2023-05-10T12:30:39;7.75;;;4.18;;
67554;SDS011;54385;53.516;49.456;2023-05-10T12:33:14;7.13;;;4.50;;
67554;SDS011;54385;53.516;49.456;2023-05-10T12:35:47;7.13;;;4.68;;
67554;SDS011;54385;53.516;49.456;2023-05-10T12:38:33;7.80;;;4.28;;
67554;SDS011;54385;53.516;49.456;2023-05-10T12:41:09;8.52;;;3.70;;
67554;SDS011;54385;53.516;49.456;2023-05-10T12:43:37;8.27;;;4.43;;
67554;SDS011;54385;53.516;49.456;2023-05-10T12:46:05;6.93;;;4.20;;
67554;SDS011;54385;53.516;49.456;2023-05-10T12:48:38;9.80;;;4.50;;
67554;SDS011;54385;53.516;49.456;2023-05-10T12:51:06;8.00;;;4.57;;
67554;SDS011;54385;53.516;49.456;2023-05-10T12:53:37;8.10;;;4.32;;
67554;SDS011;54385;53.516;49.456;2023-05-10T12:56:05;9.95;;;5.10;;
67554;SDS011;54385;53.516;49.456;2023-05-10T12:58:31;11.23;;;4.93;;
67554;SDS011;54385;53.516;49.456;2023-05-10T13:00:59;11.95;;;4.80;;
67554;SDS011;54385;53.516;49.456;2023-05-10T13:03:25;13.35;;;4.45;;
67554;SDS011;54385;53.516;49.456;2023-05-10T13:05:52;15.57;;;5.13;;
67554;SDS011;54385;53.516;49.456;2023-05-10T13:08:18;9.85;;;4.63;;
67554;SDS011;54385;53.516;49.456;2023-05-10T13:10:45;9.10;;;4.35;;
67554;SDS011;54385;53.516;49.456;2023-05-10T13:13:11;6.60;;;4.32;;
67554;SDS011;54385;53.516;49.456;2023-05-10T13:15:38;13.70;;;6.53;;
67554;SDS011;54385;53.516;49.456;2023-05-10T13:18:04;9.18;;;4.55;;
67554;SDS011;54385;53.516;49.456;2023-05-10T13:20:32;8.45;;;4.20;;
67554;SDS011;54385;53.516;49.456;2023-05-10T13:22:58;9.25;;;3.75;;
67554;SDS011;54385;53.516;49.456;2023-05-10T13:25:25;8.00;;;4.18;;
67554;SDS011;54385;53.516;49.456;2023-05-10T13:27:51;13.10;;;6.03;;
67554;SDS011;54385;53.516;49.456;2023-05-10T13:30:18;10.77;;;5.40;;
67554;SDS011;54385;53.516;49.456;2023-05-10T13:32:44;9.32;;;4.93;;
67554;SDS011;54385;53.516;49.456;2023-05-10T13:35:11;12.70;;;4.82;;
67554;SDS011;54385;53.516;49.456;2023-05-10T13:37:37;13.27;;;4.50;;
67554;SDS011;54385;53.516;49.456;2023-05-10T13:40:04;16.60;;;5.50;;
67554;SDS011;54385;53.516;49.456;2023-05-10T13:42:31;19.40;;;6.38;;
67554;SDS011;54385;53.516;49.456;2023-05-10T13:44:59;11.73;;;5.18;;
67554;SDS011;54385;53.516;49.456;2023-05-10T13:47:27;9.23;;;5.28;;
67554;SDS011;54385;53.516;49.456;2023-05-10T13:49:54;10.48;;;5.20;;
67554;SDS011;54385;53.516;49.456;2023-05-10T13:52:20;7.28;;;3.70;;
67554;SDS011;54385;53.516;49.456;2023-05-10T13:54:46;8.90;;;4.10;;
67554;SDS011;54385;53.516;49.456;2023-05-10T13:57:13;8.88;;;4.90;;
67554;SDS011;54385;53.516;49.456;2023-05-10T13:59:39;11.75;;;4.85;;
67554;SDS011;54385;53.516;49.456;2023-05-10T14:02:05;7.18;;;3.95;;
67554;SDS011;54385;53.516;49.456;2023-05-10T14:04:32;21.27;;;5.80;;
67554;SDS011;54385;53.516;49.456;2023-05-10T14:07:00;8.00;;;4.32;;
67554;SDS011;54385;53.516;49.456;2023-05-10T14:09:27;5.38;;;4.07;;
67554;SDS011;54385;53.516;49.456;2023-05-10T14:11:53;6.95;;;3.95;;
67554;SDS011;54385;53.516;49.456;2023-05-10T14:14:21;12.82;;;5.07;;
67554;SDS011;54385;53.516;49.456;2023-05-10T14:16:47;12.35;;;6.03;;
67554;SDS011;54385;53.516;49.456;2023-05-10T14:19:14;12.52;;;4.85;;
67554;SDS011;54385;53.516;49.456;2023-05-10T14:21:41;8.15;;;4.22;;
67554;SDS011;54385;53.516;49.456;2023-05-10T14:24:08;11.57;;;4.35;;
67554;SDS011;54385;53.516;49.456;2023-05-10T14:26:36;7.95;;;4.20;;
67554;SDS011;54385;53.516;49.456;2023-05-10T14:29:02;6.25;;;3.88;;
67554;SDS011;54385;53.516;49.456;2023-05-10T14:31:29;6.55;;;4.05;;
67554;SDS011;54385;53.516;49.456;2023-05-10T14:33:56;7.13;;;2.75;;
67554;SDS011;54385;53.516;49.456;2023-05-10T14:36:23;3.88;;;1.88;;
67554;SDS011;54385;53.516;49.456;2023-05-10T14:38:50;6.20;;;2.10;;
67554;SDS011;54385;53.516;49.456;2023-05-10T14:41:17;3.55;;;1.85;;
67554;SDS011;54385;53.516;49.456;2023-05-10T14:43:45;4.65;;;1.67;;
67554;SDS011;54385;53.516;49.456;2023-05-10T14:46:17;7.15;;;1.55;;
67554;SDS011;54385;53.516;49.456;2023-05-10T14:48:48;7.22;;;1.70;;
67554;SDS011;54385;53.516;49.456;2023-05-10T14:51:15;3.45;;;1.45;;
67554;SDS011;54385;53.516;49.456;2023-05-10T14:53:42;5.38;;;1.98;;
67554;SDS011;54385;53.516;49.456;2023-05-10T14:56:08;2.58;;;1.63;;
67554;SDS011;54385;53.516;49.456;2023-05-10T14:58:35;3.35;;;1.83;;
67554;SDS011;54385;53.516;49.456;2023-05-10T15:01:05;6.32;;;2.80;;
67554;SDS011;54385;53.516;49.456;2023-05-10T15:03:32;4.45;;;1.83;;
67554;SDS011;54385;53.516;49.456;2023-05-10T15:05:59;3.42;;;2.10;;
67554;SDS011;54385;53.516;49.456;2023-05-10T15:08:26;5.72;;;2.15;;
67554;SDS011;54385;53.516;49.456;2023-05-10T15:10:55;3.80;;;1.70;;
67554;SDS011;54385;53.516;49.456;2023-05-10T15:13:28;4.72;;;1.50;;
67554;SDS011;54385;53.516;49.456;2023-05-10T15:16:03;3.88;;;1.42;;
67554;SDS011;54385;53.516;49.456;2023-05-10T15:18:31;3.22;;;1.20;;